createdAt,value
2024-05-09T00:00:35.998Z,278.33
2024-05-09T00:01:10.217Z,279.00
2024-05-09T00:01:41.072Z,277.67
2024-05-09T00:02:11.963Z,276.33
2024-05-09T00:02:43.140Z,275.67
2024-05-09T00:03:14.086Z,275.00
2024-05-09T00:03:45.782Z,275.33
2024-05-09T00:04:16.638Z,273.67
2024-05-09T00:04:47.542Z,272.00
2024-05-09T00:05:18.433Z,271.33
2024-05-09T00:05:49.325Z,271.33
2024-05-09T00:06:20.165Z,270.33
2024-05-09T00:06:50.965Z,267.67
2024-05-09T00:07:21.759Z,264.33
2024-05-09T00:07:52.612Z,259.67
2024-05-09T00:08:23.622Z,259.33
2024-05-09T00:08:54.482Z,260.67
2024-05-09T00:09:25.272Z,262.00
2024-05-09T00:09:56.070Z,263.00
2024-05-09T00:10:35.054Z,264.00
2024-05-09T00:11:08.866Z,264.00
2024-05-09T00:11:39.759Z,263.00
2024-05-09T00:12:10.742Z,260.67
2024-05-09T00:12:41.616Z,256.33
2024-05-09T00:13:12.393Z,258.33
2024-05-09T00:13:43.284Z,258.33
2024-05-09T00:14:14.145Z,256.67
2024-05-09T00:14:44.946Z,254.00
2024-05-09T00:15:15.728Z,252.33
2024-05-09T00:15:46.510Z,254.00
2024-05-09T00:16:17.304Z,255.33
2024-05-09T00:16:48.662Z,256.00
2024-05-09T00:17:19.592Z,255.67
2024-05-09T00:17:50.613Z,254.00
2024-05-09T00:18:21.791Z,252.00
2024-05-09T00:18:52.754Z,253.00
2024-05-09T00:19:23.689Z,252.67
2024-05-09T00:19:54.550Z,247.33
2024-05-09T00:20:33.224Z,239.67
2024-05-09T00:21:09.610Z,233.33
2024-05-09T00:21:43.852Z,230.67
2024-05-09T00:22:14.667Z,235.67
2024-05-09T00:22:45.468Z,236.00
2024-05-09T00:23:16.392Z,234.33
2024-05-09T00:23:47.240Z,234.67
2024-05-09T00:24:18.039Z,235.67
2024-05-09T00:24:48.871Z,233.00
2024-05-09T00:25:19.665Z,232.00
2024-05-09T00:25:50.511Z,231.33
2024-05-09T00:26:23.008Z,234.00
2024-05-09T00:26:53.922Z,233.00
2024-05-09T00:27:24.742Z,231.67
2024-05-09T00:27:55.550Z,229.33
2024-05-09T00:28:26.337Z,224.33
2024-05-09T00:28:57.211Z,223.67
2024-05-09T00:29:28.142Z,227.67
2024-05-09T00:29:58.998Z,229.00
2024-05-09T00:30:34.212Z,227.67
2024-05-09T00:31:07.210Z,225.67
2024-05-09T00:31:38.017Z,225.67
2024-05-09T00:32:08.940Z,225.00
2024-05-09T00:32:39.902Z,224.33
2024-05-09T00:33:11.740Z,224.33
2024-05-09T00:33:42.940Z,226.00
2024-05-09T00:34:14.040Z,227.67
2024-05-09T00:34:45.182Z,228.33
2024-05-09T00:35:16.174Z,229.00
2024-05-09T00:35:47.037Z,230.00
2024-05-09T00:36:18.092Z,231.33
2024-05-09T00:36:48.913Z,233.00
2024-05-09T00:37:20.831Z,237.33
2024-05-09T00:37:51.762Z,241.67
2024-05-09T00:38:22.687Z,243.00
2024-05-09T00:38:53.540Z,245.00
2024-05-09T00:39:24.370Z,247.00
2024-05-09T00:39:55.159Z,247.67
2024-05-09T00:40:35.703Z,247.33
2024-05-09T00:41:10.692Z,249.00
2024-05-09T00:41:41.640Z,250.00
2024-05-09T00:42:12.479Z,250.00
2024-05-09T00:42:46.013Z,249.00
2024-05-09T00:43:16.869Z,249.00
2024-05-09T00:43:47.744Z,248.33
2024-05-09T00:44:18.576Z,248.00
2024-05-09T00:44:49.480Z,248.00
2024-05-09T00:45:20.274Z,247.00
2024-05-09T00:45:52.588Z,247.00
2024-05-09T00:46:23.378Z,247.67
2024-05-09T00:46:55.143Z,248.00
2024-05-09T00:47:26.115Z,248.00
2024-05-09T00:47:59.089Z,248.00
2024-05-09T00:48:30.664Z,247.67
2024-05-09T00:49:01.886Z,248.33
2024-05-09T00:49:32.963Z,250.67
2024-05-09T00:50:05.503Z,255.67
2024-05-09T00:50:42.623Z,259.67
2024-05-09T00:51:13.723Z,261.00
2024-05-09T00:51:44.681Z,262.67
2024-05-09T00:52:16.261Z,265.00
2024-05-09T00:52:48.219Z,264.00
2024-05-09T00:53:19.310Z,262.33
2024-05-09T00:53:50.184Z,262.00
2024-05-09T00:54:21.699Z,262.00
2024-05-09T00:54:54.748Z,261.00
2024-05-09T00:55:25.736Z,261.33
2024-05-09T00:55:56.668Z,263.00
2024-05-09T00:56:27.940Z,264.33
2024-05-09T00:57:01.037Z,264.00
2024-05-09T00:57:31.881Z,263.67
2024-05-09T00:58:04.611Z,263.00
2024-05-09T00:58:35.683Z,262.67
2024-05-09T00:59:07.079Z,262.33
2024-05-09T00:59:38.225Z,262.00
2024-05-09T01:00:18.457Z,262.00
2024-05-09T01:00:59.421Z,261.00
2024-05-09T01:01:30.783Z,260.00
2024-05-09T01:02:01.810Z,260.00
2024-05-09T01:02:32.818Z,259.00
2024-05-09T01:03:04.231Z,258.00
2024-05-09T01:03:35.403Z,258.00
2024-05-09T01:04:07.027Z,258.00
2024-05-09T01:04:37.965Z,257.33
2024-05-09T01:05:08.961Z,257.00
2024-05-09T01:05:40.441Z,257.00
2024-05-09T01:06:11.617Z,256.00
2024-05-09T01:06:42.515Z,253.33
2024-05-09T01:07:13.389Z,249.00
2024-05-09T01:07:44.259Z,242.33
2024-05-09T01:08:15.187Z,234.67
2024-05-09T01:08:46.560Z,230.67
2024-05-09T01:09:17.386Z,231.33
2024-05-09T01:09:48.180Z,231.00
2024-05-09T01:10:27.555Z,233.33
2024-05-09T01:11:03.082Z,232.67
2024-05-09T01:11:38.007Z,223.67
2024-05-09T01:12:09.099Z,210.67
2024-05-09T01:12:40.251Z,205.00
2024-05-09T01:13:11.440Z,208.00
2024-05-09T01:13:43.785Z,209.33
2024-05-09T01:14:14.744Z,203.33
2024-05-09T01:14:45.610Z,201.00
2024-05-09T01:15:16.519Z,203.33
2024-05-09T01:15:48.983Z,204.67
2024-05-09T01:16:19.888Z,206.00
2024-05-09T01:16:50.699Z,210.67
2024-05-09T01:17:21.721Z,212.67
2024-05-09T01:17:54.295Z,211.00
2024-05-09T01:18:26.605Z,210.00
2024-05-09T01:18:58.091Z,203.67
2024-05-09T01:19:29.759Z,198.00
2024-05-09T01:20:00.712Z,203.00
2024-05-09T01:20:39.934Z,206.33
2024-05-09T01:21:14.278Z,208.33
2024-05-09T01:21:45.176Z,209.00
2024-05-09T01:22:15.965Z,209.00
2024-05-09T01:22:46.908Z,209.33
2024-05-09T01:23:17.723Z,209.33
2024-05-09T01:23:48.531Z,205.67
2024-05-09T01:24:19.388Z,195.00
2024-05-09T01:24:50.927Z,190.00
2024-05-09T01:25:21.755Z,187.00
2024-05-09T01:25:52.572Z,185.00
2024-05-09T01:26:23.431Z,185.00
2024-05-09T01:26:54.280Z,186.33
2024-05-09T01:27:25.078Z,185.00
2024-05-09T01:27:55.923Z,183.00
2024-05-09T01:28:26.720Z,186.00
2024-05-09T01:28:57.581Z,189.00
2024-05-09T01:29:28.512Z,191.00
2024-05-09T01:29:59.626Z,191.67
2024-05-09T01:30:34.564Z,192.33
2024-05-09T01:31:07.680Z,193.33
2024-05-09T01:31:38.485Z,194.00
2024-05-09T01:32:09.402Z,195.00
2024-05-09T01:32:40.470Z,195.33
2024-05-09T01:33:12.532Z,197.00
2024-05-09T01:33:44.216Z,199.33
2024-05-09T01:34:15.230Z,207.00
2024-05-09T01:34:46.116Z,209.00
2024-05-09T01:35:22.272Z,208.00
2024-05-09T01:35:53.172Z,208.00
2024-05-09T01:36:24.007Z,207.33
2024-05-09T01:36:54.923Z,207.33
2024-05-09T01:37:25.747Z,208.00
2024-05-09T01:37:56.591Z,207.67
2024-05-09T01:38:27.423Z,206.67
2024-05-09T01:38:58.207Z,206.00
2024-05-09T01:39:28.990Z,207.00
2024-05-09T01:39:59.777Z,208.67
2024-05-09T01:41:03.761Z,207.67
2024-05-09T01:41:37.565Z,205.00
2024-05-09T01:42:08.403Z,200.67
2024-05-09T01:42:39.215Z,195.67
2024-05-09T01:43:11.249Z,185.67
2024-05-09T01:43:42.904Z,182.33
2024-05-09T01:44:13.878Z,183.67
2024-05-09T01:44:45.742Z,183.67
2024-05-09T01:45:17.386Z,182.67
2024-05-09T01:45:48.235Z,182.67
2024-05-09T01:46:19.067Z,184.67
2024-05-09T01:46:49.951Z,186.00
2024-05-09T01:47:20.939Z,187.33
2024-05-09T01:47:52.076Z,190.00
2024-05-09T01:48:23.176Z,192.00
2024-05-09T01:48:54.131Z,193.33
2024-05-09T01:49:25.193Z,194.33
2024-05-09T01:49:56.139Z,196.33
2024-05-09T01:50:36.552Z,203.00
2024-05-09T01:51:11.483Z,209.67
2024-05-09T01:51:42.362Z,214.33
2024-05-09T01:52:13.243Z,218.33
2024-05-09T01:52:44.075Z,225.33
2024-05-09T01:53:15.449Z,223.67
2024-05-09T01:53:46.626Z,219.00
2024-05-09T01:54:17.415Z,216.67
2024-05-09T01:54:48.209Z,214.67
2024-05-09T01:55:18.996Z,214.00
2024-05-09T01:55:49.817Z,213.33
2024-05-09T01:56:20.709Z,213.00
2024-05-09T01:56:51.512Z,210.33
2024-05-09T01:57:22.357Z,200.00
2024-05-09T01:57:53.158Z,187.67
2024-05-09T01:58:24.138Z,183.67
2024-05-09T01:58:55.025Z,182.67
2024-05-09T01:59:25.997Z,181.33
2024-05-09T01:59:56.836Z,182.67
2024-05-09T02:00:36.144Z,182.00
2024-05-09T02:01:10.615Z,182.00
2024-05-09T02:01:56.138Z,182.67
2024-05-09T02:02:28.550Z,184.67
2024-05-09T02:02:59.607Z,186.00
2024-05-09T02:03:30.641Z,186.33
2024-05-09T02:04:01.885Z,186.33
2024-05-09T02:04:33.088Z,187.00
2024-05-09T02:05:04.481Z,187.00
2024-05-09T02:05:35.412Z,186.33
2024-05-09T02:06:06.573Z,177.67
2024-05-09T02:06:40.910Z,170.00
2024-05-09T02:07:11.802Z,171.67
2024-05-09T02:07:42.651Z,171.33
2024-05-09T02:08:14.924Z,164.00
2024-05-09T02:08:45.864Z,157.33
2024-05-09T02:09:16.726Z,160.00
2024-05-09T02:09:50.769Z,163.33
2024-05-09T02:10:26.499Z,165.33
2024-05-09T02:11:03.274Z,164.67
2024-05-09T02:11:42.734Z,160.33
2024-05-09T02:12:13.827Z,142.67
2024-05-09T02:12:44.731Z,133.33
2024-05-09T02:13:16.078Z,123.33
2024-05-09T02:13:47.192Z,119.33
2024-05-09T02:14:19.241Z,123.33
2024-05-09T02:14:50.872Z,127.33
2024-05-09T02:15:21.657Z,129.67
2024-05-09T02:15:52.615Z,132.00
2024-05-09T02:16:23.453Z,136.33
2024-05-09T02:16:54.323Z,140.67
2024-05-09T02:17:25.308Z,141.33
2024-05-09T02:17:56.365Z,140.33
2024-05-09T02:18:27.458Z,141.33
2024-05-09T02:18:58.533Z,142.00
2024-05-09T02:19:29.484Z,143.33
2024-05-09T02:20:00.393Z,144.33
2024-05-09T02:20:36.010Z,145.33
2024-05-09T02:21:08.152Z,149.00
2024-05-09T02:21:39.347Z,151.33
2024-05-09T02:22:10.177Z,155.67
2024-05-09T02:22:40.992Z,159.67
2024-05-09T02:23:12.913Z,161.00
2024-05-09T02:23:43.953Z,169.00
2024-05-09T02:24:14.785Z,179.33
2024-05-09T02:24:45.586Z,182.00
2024-05-09T02:25:16.512Z,181.67
2024-05-09T02:25:47.322Z,184.33
2024-05-09T02:26:18.179Z,187.33
2024-05-09T02:26:48.993Z,188.33
2024-05-09T02:27:19.789Z,186.33
2024-05-09T02:27:50.595Z,186.00
2024-05-09T02:28:21.382Z,187.33
2024-05-09T02:28:52.620Z,184.33
2024-05-09T02:29:23.433Z,183.00
2024-05-09T02:29:54.237Z,181.00
2024-05-09T02:30:35.079Z,180.33
2024-05-09T02:31:13.184Z,178.00
2024-05-09T02:31:44.258Z,177.00
2024-05-09T02:32:15.246Z,177.00
2024-05-09T02:32:46.453Z,176.33
2024-05-09T02:33:17.500Z,176.00
2024-05-09T02:33:48.653Z,175.33
2024-05-09T02:34:19.900Z,173.00
2024-05-09T02:34:50.770Z,167.00
2024-05-09T02:35:21.680Z,158.33
2024-05-09T02:35:52.538Z,156.67
2024-05-09T02:36:23.559Z,158.33
2024-05-09T02:36:55.066Z,159.00
2024-05-09T02:37:25.872Z,159.00
2024-05-09T02:37:56.999Z,160.00
2024-05-09T02:38:27.834Z,159.67
2024-05-09T02:38:58.654Z,156.67
2024-05-09T02:39:29.444Z,156.00
2024-05-09T02:40:00.235Z,154.00
2024-05-09T02:40:37.414Z,152.00
2024-05-09T02:41:10.039Z,152.67
2024-05-09T02:41:40.878Z,153.67
2024-05-09T02:42:11.676Z,154.00
2024-05-09T02:42:42.478Z,155.00
2024-05-09T02:43:13.443Z,154.00
2024-05-09T02:43:44.280Z,148.33
2024-05-09T02:44:15.149Z,144.33
2024-05-09T02:44:46.060Z,143.67
2024-05-09T02:45:16.848Z,141.00
2024-05-09T02:45:47.636Z,136.33
2024-05-09T02:46:18.457Z,136.67
2024-05-09T02:46:49.318Z,139.67
2024-05-09T02:47:20.342Z,141.67
2024-05-09T02:47:51.362Z,143.00
2024-05-09T02:48:22.622Z,144.00
2024-05-09T02:48:53.654Z,142.67
2024-05-09T02:49:24.728Z,141.00
2024-05-09T02:49:55.633Z,141.00
2024-05-09T02:50:34.196Z,141.33
2024-05-09T02:51:09.489Z,143.33
2024-05-09T02:51:40.379Z,146.33
2024-05-09T02:52:11.164Z,151.67
2024-05-09T02:52:41.970Z,152.00
2024-05-09T02:53:13.317Z,149.33
2024-05-09T02:53:44.354Z,146.67
2024-05-09T02:54:15.220Z,144.33
2024-05-09T02:54:46.007Z,128.67
2024-05-09T02:55:16.796Z,108.67
2024-05-09T02:55:47.645Z,104.67
2024-05-09T02:56:18.495Z,105.67
2024-05-09T02:56:49.289Z,115.00
2024-05-09T02:57:20.087Z,122.00
2024-05-09T02:57:50.890Z,122.00
2024-05-09T02:58:21.672Z,124.00
2024-05-09T02:58:52.568Z,124.67
2024-05-09T02:59:23.477Z,125.00
2024-05-09T02:59:54.368Z,125.00
2024-05-09T03:00:34.440Z,124.67
2024-05-09T03:01:09.765Z,114.00
2024-05-09T03:01:40.700Z,110.00
2024-05-09T03:02:12.610Z,112.67
2024-05-09T03:02:43.630Z,113.00
2024-05-09T03:03:15.748Z,110.00
2024-05-09T03:03:49.230Z,107.67
2024-05-09T03:04:20.209Z,109.00
2024-05-09T03:04:51.146Z,109.00
2024-05-09T03:05:22.145Z,109.00
2024-05-09T03:05:53.034Z,111.33
2024-05-09T03:06:23.835Z,112.00
2024-05-09T03:06:54.618Z,110.00
2024-05-09T03:07:25.421Z,105.33
2024-05-09T03:07:56.270Z,88.33
2024-05-09T03:08:27.134Z,73.00
2024-05-09T03:08:57.992Z,66.33
2024-05-09T03:09:28.796Z,64.67
2024-05-09T03:09:59.593Z,60.33
2024-05-09T03:10:35.691Z,51.00
2024-05-09T03:11:08.753Z,43.00
2024-05-09T03:11:39.704Z,40.67
2024-05-09T03:12:10.735Z,42.00
2024-05-09T03:12:41.639Z,45.67
2024-05-09T03:13:14.889Z,46.00
2024-05-09T03:13:46.805Z,49.00
2024-05-09T03:14:18.450Z,54.00
2024-05-09T03:14:49.717Z,53.33
2024-05-09T03:15:23.138Z,49.33
2024-05-09T03:15:53.934Z,49.00
2024-05-09T03:16:24.712Z,49.67
2024-05-09T03:16:55.575Z,47.33
2024-05-09T03:17:26.563Z,42.00
2024-05-09T03:17:58.971Z,40.33
2024-05-09T03:18:30.055Z,42.00
2024-05-09T03:19:01.012Z,42.67
2024-05-09T03:19:34.314Z,41.00
2024-05-09T03:20:11.513Z,40.00
2024-05-09T03:20:45.536Z,41.00
2024-05-09T03:21:16.428Z,39.33
2024-05-09T03:21:47.272Z,36.33
2024-05-09T03:22:18.073Z,35.00
2024-05-09T03:22:49.008Z,35.00
2024-05-09T03:23:19.897Z,36.67
2024-05-09T03:23:50.782Z,37.00
2024-05-09T03:24:21.584Z,35.67
2024-05-09T03:24:52.448Z,34.67
2024-05-09T03:25:23.241Z,32.00
2024-05-09T03:25:54.221Z,28.00
2024-05-09T03:26:25.158Z,26.33
2024-05-09T03:26:56.090Z,27.00
2024-05-09T03:27:26.879Z,25.33
2024-05-09T03:27:58.075Z,23.00
2024-05-09T03:28:28.859Z,20.67
2024-05-09T03:28:59.729Z,19.33
2024-05-09T03:29:30.696Z,18.00
2024-05-09T03:30:01.594Z,18.00
2024-05-09T03:30:39.781Z,18.00
2024-05-09T03:31:13.286Z,17.33
2024-05-09T03:31:44.300Z,19.67
2024-05-09T03:32:15.218Z,20.00
2024-05-09T03:32:46.283Z,20.33
2024-05-09T03:33:18.651Z,21.33
2024-05-09T03:33:50.952Z,22.67
2024-05-09T03:34:21.814Z,23.67
2024-05-09T03:34:52.645Z,24.33
2024-05-09T03:35:23.793Z,25.00
2024-05-09T03:35:54.743Z,25.00
2024-05-09T03:36:26.112Z,25.00
2024-05-09T03:36:56.896Z,25.00
2024-05-09T03:37:27.702Z,26.00
2024-05-09T03:37:58.550Z,26.00
2024-05-09T03:38:29.664Z,26.00
2024-05-09T03:39:00.566Z,26.00
2024-05-09T03:39:31.988Z,26.00
2024-05-09T03:40:03.092Z,26.00
2024-05-09T03:40:33.909Z,26.00
2024-05-09T03:41:04.780Z,25.00
2024-05-09T03:41:35.859Z,25.00
2024-05-09T03:42:07.034Z,25.00
2024-05-09T03:42:40.529Z,25.00
2024-05-09T03:43:12.148Z,25.00
2024-05-09T03:43:43.143Z,25.00
2024-05-09T03:44:13.984Z,25.00
2024-05-09T03:44:44.812Z,25.00
2024-05-09T03:45:15.815Z,25.00
2024-05-09T03:45:47.950Z,25.00
2024-05-09T03:46:18.747Z,25.00
2024-05-09T03:46:49.823Z,25.00
2024-05-09T03:47:20.792Z,25.00
2024-05-09T03:47:52.094Z,25.00
2024-05-09T03:48:23.532Z,25.00
2024-05-09T03:48:54.751Z,25.00
2024-05-09T03:49:25.904Z,25.00
2024-05-09T03:49:56.896Z,25.00
2024-05-09T03:50:33.713Z,25.00
2024-05-09T03:51:06.663Z,25.67
2024-05-09T03:51:37.507Z,25.00
2024-05-09T03:52:08.295Z,25.00
2024-05-09T03:52:39.092Z,25.00
2024-05-09T03:53:11.430Z,25.00
2024-05-09T03:53:42.455Z,25.67
2024-05-09T03:54:13.351Z,25.67
2024-05-09T03:54:47.891Z,25.33
2024-05-09T03:55:18.801Z,26.00
2024-05-09T03:55:49.656Z,26.00
2024-05-09T03:56:20.522Z,26.33
2024-05-09T03:56:51.426Z,27.33
2024-05-09T03:57:22.221Z,28.00
2024-05-09T03:57:53.039Z,28.00
2024-05-09T03:58:23.856Z,29.00
2024-05-09T03:58:55.048Z,30.00
2024-05-09T03:59:26.030Z,31.33
2024-05-09T03:59:56.864Z,32.33
2024-05-09T04:00:35.241Z,33.00
2024-05-09T04:01:10.631Z,33.00
2024-05-09T04:01:41.562Z,33.00
2024-05-09T04:02:12.605Z,34.00
2024-05-09T04:02:46.689Z,34.00
2024-05-09T04:03:18.022Z,34.00
2024-05-09T04:03:49.266Z,34.67
2024-05-09T04:04:20.180Z,35.00
2024-05-09T04:04:51.235Z,35.00
2024-05-09T04:05:22.439Z,35.33
2024-05-09T04:05:53.283Z,36.00
2024-05-09T04:06:25.541Z,36.00
2024-05-09T04:06:56.324Z,37.00
2024-05-09T04:07:27.179Z,38.67
2024-05-09T04:07:58.060Z,42.33
2024-05-09T04:08:29.025Z,46.67
2024-05-09T04:08:59.843Z,48.67
2024-05-09T04:09:30.641Z,49.33
2024-05-09T04:10:01.430Z,49.00
2024-05-09T04:10:34.135Z,49.33
2024-05-09T04:11:06.062Z,51.00
2024-05-09T04:11:37.124Z,56.33
2024-05-09T04:12:08.011Z,62.67
2024-05-09T04:12:38.911Z,67.67
2024-05-09T04:13:09.868Z,73.33
2024-05-09T04:13:40.728Z,80.00
2024-05-09T04:14:11.523Z,87.67
2024-05-09T04:14:42.394Z,95.00
2024-05-09T04:15:14.011Z,100.00
2024-05-09T04:15:44.808Z,100.33
2024-05-09T04:16:15.640Z,98.00
2024-05-09T04:16:46.470Z,97.67
2024-05-09T04:17:17.365Z,99.33
2024-05-09T04:17:50.304Z,105.67
2024-05-09T04:18:21.483Z,112.00
2024-05-09T04:18:52.442Z,117.67
2024-05-09T04:19:23.402Z,117.33
2024-05-09T04:19:54.729Z,120.00
2024-05-09T04:20:35.972Z,121.00
2024-05-09T04:21:10.378Z,122.33
2024-05-09T04:21:41.275Z,125.00
2024-05-09T04:22:12.150Z,122.00
2024-05-09T04:22:42.965Z,120.33
2024-05-09T04:23:14.498Z,120.67
2024-05-09T04:23:45.650Z,120.33
2024-05-09T04:24:16.470Z,114.33
2024-05-09T04:24:47.573Z,110.00
2024-05-09T04:25:18.374Z,107.33
2024-05-09T04:25:49.266Z,105.00
2024-05-09T04:26:20.129Z,102.00
2024-05-09T04:26:50.957Z,99.00
2024-05-09T04:27:21.814Z,98.00
2024-05-09T04:27:54.677Z,98.00
2024-05-09T04:28:25.540Z,97.00
2024-05-09T04:28:56.349Z,95.67
2024-05-09T04:29:27.268Z,95.00
2024-05-09T04:29:58.141Z,94.00
2024-05-09T04:30:36.646Z,94.00
2024-05-09T04:31:10.488Z,95.00
2024-05-09T04:31:41.290Z,95.00
2024-05-09T04:32:12.311Z,94.67
2024-05-09T04:32:43.275Z,94.00
2024-05-09T04:33:15.035Z,93.67
2024-05-09T04:33:46.622Z,92.00
2024-05-09T04:34:17.997Z,91.33
2024-05-09T04:34:48.848Z,89.00
2024-05-09T04:35:21.347Z,85.67
2024-05-09T04:35:52.258Z,82.33
2024-05-09T04:36:23.298Z,81.33
2024-05-09T04:36:54.141Z,80.67
2024-05-09T04:37:25.264Z,79.67
2024-05-09T04:37:56.114Z,79.33
2024-05-09T04:38:28.889Z,80.67
2024-05-09T04:38:59.740Z,81.00
2024-05-09T04:39:30.537Z,81.00
2024-05-09T04:40:01.333Z,81.00
2024-05-09T04:40:35.389Z,81.33
2024-05-09T04:41:07.859Z,82.00
2024-05-09T04:41:38.837Z,82.67
2024-05-09T04:42:09.693Z,83.67
2024-05-09T04:42:40.639Z,84.00
2024-05-09T04:43:16.234Z,84.00
2024-05-09T04:43:49.702Z,84.00
2024-05-09T04:44:20.595Z,83.33
2024-05-09T04:44:52.985Z,82.67
2024-05-09T04:45:24.882Z,82.00
2024-05-09T04:45:55.679Z,82.00
2024-05-09T04:46:26.467Z,82.00
2024-05-09T04:46:57.294Z,82.00
2024-05-09T04:47:28.398Z,82.33
2024-05-09T04:47:59.982Z,83.00
2024-05-09T04:48:33.903Z,83.00
2024-05-09T04:49:04.934Z,83.33
2024-05-09T04:49:36.005Z,86.00
2024-05-09T04:50:11.385Z,95.00
2024-05-09T04:50:42.686Z,110.33
2024-05-09T04:51:13.676Z,129.00
2024-05-09T04:51:44.503Z,142.33
2024-05-09T04:52:15.294Z,147.33
2024-05-09T04:52:46.205Z,148.00
2024-05-09T04:53:17.394Z,147.33
2024-05-09T04:53:48.451Z,136.33
2024-05-09T04:54:29.978Z,128.00
2024-05-09T04:55:06.752Z,129.67
2024-05-09T04:55:38.087Z,125.33
2024-05-09T04:56:08.984Z,123.00
2024-05-09T04:56:39.802Z,123.33
2024-05-09T04:57:10.603Z,123.00
2024-05-09T04:57:41.474Z,121.33
2024-05-09T04:58:12.447Z,119.00
2024-05-09T04:58:43.309Z,115.00
2024-05-09T04:59:14.246Z,108.67
2024-05-09T04:59:45.081Z,94.67
2024-05-09T05:00:21.852Z,86.00
2024-05-09T05:00:59.529Z,88.00
2024-05-09T05:01:30.460Z,93.00
2024-05-09T05:02:01.389Z,113.67
2024-05-09T05:02:32.370Z,136.67
2024-05-09T05:03:05.113Z,138.00
2024-05-09T05:03:36.185Z,126.33
2024-05-09T05:04:07.199Z,117.33
2024-05-09T05:04:38.222Z,99.33
2024-05-09T05:05:09.388Z,85.00
2024-05-09T05:05:40.712Z,78.00
2024-05-09T05:06:11.930Z,79.00
2024-05-09T05:06:42.737Z,80.00
2024-05-09T05:07:13.533Z,78.00
2024-05-09T05:07:44.377Z,72.67
2024-05-09T05:08:17.500Z,65.67
2024-05-09T05:08:49.324Z,59.33
2024-05-09T05:09:20.163Z,59.00
2024-05-09T05:09:52.050Z,64.67
2024-05-09T05:10:32.906Z,73.00
2024-05-09T05:11:06.483Z,77.67
2024-05-09T05:11:37.389Z,92.33
2024-05-09T05:12:28.334Z,126.67
2024-05-09T05:13:18.992Z,157.67
2024-05-09T05:13:50.579Z,153.33
2024-05-09T05:14:21.393Z,148.00
2024-05-09T05:14:52.326Z,130.33
2024-05-09T05:15:23.125Z,122.67
2024-05-09T05:15:57.862Z,112.67
2024-05-09T05:16:29.218Z,93.67
2024-05-09T05:17:00.044Z,85.00
2024-05-09T05:17:31.079Z,81.67
2024-05-09T05:18:02.181Z,81.00
2024-05-09T05:18:33.173Z,80.33
2024-05-09T05:19:05.855Z,81.33
2024-05-09T05:19:38.142Z,78.67
2024-05-09T05:20:14.936Z,80.33
2024-05-09T05:20:46.218Z,83.00
2024-05-09T05:21:17.214Z,79.67
2024-05-09T05:21:48.035Z,70.33
2024-05-09T05:22:18.842Z,64.00
2024-05-09T05:22:49.744Z,71.67
2024-05-09T05:23:21.783Z,157.33
2024-05-09T05:23:52.684Z,293.33
2024-05-09T05:24:23.487Z,339.33
2024-05-09T05:24:54.277Z,317.00
2024-05-09T05:25:25.122Z,260.67
2024-05-09T05:25:56.164Z,210.67
2024-05-09T05:26:27.067Z,174.33
2024-05-09T05:26:57.883Z,162.00
2024-05-09T05:27:29.812Z,134.33
2024-05-09T05:28:00.661Z,97.33
2024-05-09T05:28:31.445Z,84.00
2024-05-09T05:29:02.258Z,83.00
2024-05-09T05:29:33.100Z,80.00
2024-05-09T05:30:07.377Z,75.33
2024-05-09T05:30:40.527Z,71.00
2024-05-09T05:31:11.555Z,65.00
2024-05-09T05:31:42.414Z,63.33
2024-05-09T05:32:13.472Z,62.33
2024-05-09T05:32:44.540Z,56.00
2024-05-09T05:33:19.468Z,53.67
2024-05-09T05:33:50.735Z,46.33
2024-05-09T05:34:21.598Z,42.00
2024-05-09T05:34:52.444Z,44.00
2024-05-09T05:35:23.407Z,48.67
2024-05-09T05:35:54.747Z,59.00
2024-05-09T05:36:25.533Z,66.00
2024-05-09T05:36:56.339Z,69.33
2024-05-09T05:37:27.123Z,70.00
2024-05-09T05:37:57.931Z,72.67
2024-05-09T05:38:28.935Z,72.67
2024-05-09T05:38:59.742Z,68.67
2024-05-09T05:39:30.554Z,66.33
2024-05-09T05:40:01.345Z,66.00
2024-05-09T05:40:36.583Z,65.00
2024-05-09T05:41:09.242Z,62.33
2024-05-09T05:41:40.106Z,58.33
2024-05-09T05:42:10.950Z,55.67
2024-05-09T05:42:42.074Z,58.67
2024-05-09T05:43:16.963Z,61.00
2024-05-09T05:43:47.914Z,61.00
2024-05-09T05:44:18.800Z,61.33
2024-05-09T05:44:49.600Z,62.00
2024-05-09T05:45:20.468Z,63.00
2024-05-09T05:45:51.247Z,63.00
2024-05-09T05:46:22.128Z,63.67
2024-05-09T05:46:52.977Z,64.67
2024-05-09T05:47:23.973Z,64.67
2024-05-09T05:47:55.245Z,63.33
2024-05-09T05:48:26.412Z,60.33
2024-05-09T05:48:57.321Z,57.00
2024-05-09T05:49:28.281Z,54.33
2024-05-09T05:49:59.204Z,55.00
2024-05-09T05:50:35.548Z,56.67
2024-05-09T05:51:08.433Z,58.33
2024-05-09T05:51:39.297Z,63.33
2024-05-09T05:52:11.198Z,69.67
2024-05-09T05:52:42.357Z,71.00
2024-05-09T05:53:13.299Z,70.67
2024-05-09T05:53:44.327Z,69.00
2024-05-09T05:54:15.184Z,67.00
2024-05-09T05:54:50.584Z,65.33
2024-05-09T05:55:21.429Z,63.67
2024-05-09T05:55:52.392Z,63.00
2024-05-09T05:56:23.295Z,64.33
2024-05-09T05:56:54.098Z,81.67
2024-05-09T05:57:24.893Z,112.00
2024-05-09T05:57:55.675Z,135.33
2024-05-09T05:58:26.466Z,138.67
2024-05-09T05:58:57.319Z,142.00
2024-05-09T05:59:28.254Z,147.67
2024-05-09T05:59:59.158Z,143.33
2024-05-09T06:00:37.603Z,136.33
2024-05-09T06:01:10.486Z,134.67
2024-05-09T06:01:41.302Z,135.33
2024-05-09T06:02:14.914Z,139.33
2024-05-09T06:02:45.883Z,132.67
2024-05-09T06:03:16.765Z,119.67
2024-05-09T06:03:47.815Z,114.33
2024-05-09T06:04:18.675Z,92.33
2024-05-09T06:04:49.610Z,72.00
2024-05-09T06:05:20.630Z,64.00
2024-05-09T06:05:51.557Z,57.00
2024-05-09T06:06:22.424Z,44.00
2024-05-09T06:06:53.233Z,38.33
2024-05-09T06:07:24.041Z,38.67
2024-05-09T06:07:54.857Z,40.00
2024-05-09T06:08:28.029Z,39.67
2024-05-09T06:09:00.775Z,36.00
2024-05-09T06:09:31.578Z,36.00
2024-05-09T06:10:03.910Z,38.00
2024-05-09T06:10:39.280Z,37.00
2024-05-09T06:11:11.776Z,36.00
2024-05-09T06:11:42.788Z,36.67
2024-05-09T06:12:13.916Z,39.33
2024-05-09T06:12:44.746Z,37.67
2024-05-09T06:13:15.600Z,32.67
2024-05-09T06:13:46.507Z,28.33
2024-05-09T06:14:17.446Z,29.67
2024-05-09T06:14:48.278Z,32.67
2024-05-09T06:15:19.078Z,33.00
2024-05-09T06:15:49.871Z,32.33
2024-05-09T06:16:20.784Z,30.67
2024-05-09T06:16:52.160Z,29.33
2024-05-09T06:17:23.893Z,30.00
2024-05-09T06:17:55.034Z,31.67
2024-05-09T06:18:26.579Z,32.33
2024-05-09T06:18:57.635Z,31.33
2024-05-09T06:19:28.717Z,31.00
2024-05-09T06:19:59.654Z,30.67
2024-05-09T06:20:35.376Z,28.67
2024-05-09T06:21:08.473Z,28.33
2024-05-09T06:21:39.328Z,30.00
2024-05-09T06:22:10.240Z,31.67
2024-05-09T06:22:41.033Z,32.67
2024-05-09T06:23:13.381Z,33.33
2024-05-09T06:23:48.201Z,35.33
2024-05-09T06:24:19.017Z,51.33
2024-05-09T06:24:49.815Z,78.67
2024-05-09T06:25:20.642Z,94.67
2024-05-09T06:25:51.578Z,109.00
2024-05-09T06:26:22.507Z,117.67
2024-05-09T06:26:53.365Z,116.33
2024-05-09T06:27:24.157Z,110.67
2024-05-09T06:27:54.954Z,111.33
2024-05-09T06:28:25.775Z,115.67
2024-05-09T06:28:56.804Z,115.33
2024-05-09T06:29:27.727Z,101.67
2024-05-09T06:29:58.633Z,91.67
2024-05-09T06:30:38.275Z,89.33
2024-05-09T06:31:11.627Z,87.67
2024-05-09T06:31:42.784Z,86.67
2024-05-09T06:32:14.420Z,85.67
2024-05-09T06:32:45.427Z,85.00
2024-05-09T06:33:16.925Z,84.33
2024-05-09T06:33:48.087Z,84.00
2024-05-09T06:34:19.162Z,85.33
2024-05-09T06:34:50.183Z,96.67
2024-05-09T06:35:21.186Z,116.33
2024-05-09T06:35:56.122Z,134.00
2024-05-09T06:36:27.002Z,143.00
2024-05-09T06:36:57.786Z,146.67
2024-05-09T06:37:28.595Z,145.33
2024-05-09T06:37:59.492Z,139.00
2024-05-09T06:38:31.649Z,131.67
2024-05-09T06:39:02.587Z,132.33
2024-05-09T06:39:33.419Z,138.67
2024-05-09T06:40:07.175Z,145.67
2024-05-09T06:40:40.415Z,146.00
2024-05-09T06:41:12.977Z,131.67
2024-05-09T06:41:43.942Z,125.00
2024-05-09T06:42:14.802Z,121.67